createdAt,value
2019-04-21T00:03:40.707Z,40.83
2019-04-21T00:14:06.035Z,39.30
2019-04-21T00:24:23.843Z,34.30
2019-04-21T00:34:17.498Z,53.13
2019-04-21T00:44:35.868Z,44.47
2019-04-21T00:55:01.836Z,41.10
2019-04-21T01:05:09.135Z,49.93
2019-04-21T01:15:11.023Z,41.60
2019-04-21T01:25:00.062Z,40.17
2019-04-21T01:35:21.129Z,32.90
2019-04-21T01:45:26.496Z,48.07
2019-04-21T01:55:46.717Z,37.47
2019-04-21T02:05:54.895Z,71.20
2019-04-21T02:16:01.060Z,35.20
2019-04-21T02:26:07.950Z,47.83
2019-04-21T02:46:35.275Z,74.10
2019-04-21T03:07:02.520Z,74.30
2019-04-21T03:17:09.605Z,69.33
2019-04-21T03:27:25.989Z,66.50
2019-04-21T03:37:25.162Z,54.97
2019-04-21T03:47:31.124Z,70.70
2019-04-21T03:57:48.991Z,74.53
2019-04-21T04:07:50.008Z,81.67
2019-04-21T04:17:46.441Z,80.20
2019-04-21T04:38:03.033Z,57.97
2019-04-21T04:58:26.504Z,50.17
2019-04-21T05:08:47.478Z,39.07
2019-04-21T05:18:34.576Z,37.93
2019-04-21T05:28:25.999Z,36.67
2019-04-21T05:38:41.792Z,38.43
2019-04-21T05:48:52.515Z,35.60
2019-04-21T05:59:03.385Z,38.07
2019-04-21T06:09:14.554Z,36.60
2019-04-21T06:19:29.414Z,36.93
2019-04-21T06:29:28.580Z,36.03
2019-04-21T06:39:42.261Z,40.13
2019-04-21T06:49:42.826Z,34.50
2019-04-21T06:59:43.136Z,38.27
2019-04-21T07:10:04.877Z,41.03
2019-04-21T07:20:09.363Z,35.77
2019-04-21T07:30:13.189Z,27.67
2019-04-21T07:40:13.484Z,24.30
2019-04-21T07:50:31.780Z,23.97
2019-04-21T08:00:58.994Z,18.03
2019-04-21T08:10:44.919Z,23.40
2019-04-21T08:20:53.403Z,22.20
2019-04-21T08:31:04.581Z,24.50
2019-04-21T08:41:11.095Z,22.27
2019-04-21T09:01:42.956Z,12.37
2019-04-21T09:11:47.191Z,11.10
2019-04-21T09:22:07.141Z,11.60
2019-04-21T09:31:59.167Z,8.63
2019-04-21T09:42:04.635Z,10.10
2019-04-21T09:52:18.860Z,9.47
2019-04-21T10:02:30.468Z,11.67
2019-04-21T10:12:26.376Z,9.37
2019-04-21T10:22:33.157Z,12.03
2019-04-21T10:32:40.510Z,11.13
2019-04-21T10:42:46.205Z,6.50
2019-04-21T10:53:09.500Z,8.00
2019-04-21T11:03:35.269Z,7.10
2019-04-21T11:13:41.068Z,7.23
2019-04-21T11:23:47.909Z,6.20
2019-04-21T11:33:53.405Z,7.40
2019-04-21T11:43:59.279Z,7.07
2019-04-21T11:54:06.784Z,5.20
2019-04-21T12:04:13.847Z,8.67
2019-04-21T12:14:19.927Z,4.67
2019-04-21T12:24:28.483Z,7.80
2019-04-21T12:34:34.290Z,5.90
2019-04-21T12:44:41.326Z,4.23
2019-04-21T12:54:47.926Z,10.50
2019-04-21T13:04:55.780Z,5.80
2019-04-21T13:15:03.944Z,5.87
2019-04-21T13:25:09.715Z,4.80
2019-04-21T13:35:16.963Z,6.07
2019-04-21T13:45:23.996Z,3.97
2019-04-21T13:55:29.789Z,6.83
2019-04-21T14:05:36.191Z,4.67
2019-04-21T14:15:42.356Z,4.57
2019-04-21T14:25:48.463Z,6.03
2019-04-21T14:35:54.770Z,3.80
2019-04-21T14:46:04.764Z,3.70
2019-04-21T14:56:11.146Z,3.00
2019-04-21T15:06:16.789Z,5.43
2019-04-21T15:16:22.824Z,4.37
2019-04-21T15:26:28.565Z,2.87
2019-04-21T15:36:35.210Z,10.17
2019-04-21T15:46:41.897Z,4.63
2019-04-21T15:56:49.141Z,3.67
2019-04-21T16:06:55.505Z,5.60
2019-04-21T16:17:03.356Z,5.20
2019-04-21T16:27:11.079Z,5.00
2019-04-21T16:37:17.329Z,4.70
2019-04-21T16:47:24.167Z,6.47
2019-04-21T16:57:31.414Z,35.13
2019-04-21T17:07:36.912Z,23.53
2019-04-21T17:18:00.843Z,177.20
2019-04-21T17:27:49.575Z,35.80
2019-04-21T17:37:56.290Z,24.50
2019-04-21T17:48:06.003Z,38.70
2019-04-21T17:58:26.999Z,33.40
2019-04-21T18:08:37.130Z,56.67
2019-04-21T18:18:28.621Z,43.63
2019-04-21T18:28:34.653Z,32.30
2019-04-21T18:39:12.250Z,34.60
2019-04-21T18:49:02.851Z,33.60
2019-04-21T18:59:06.830Z,33.27
2019-04-21T19:09:41.382Z,33.07
2019-04-21T19:29:57.211Z,36.90
2019-04-21T19:39:50.803Z,51.07
2019-04-21T19:50:01.860Z,47.13
2019-04-21T19:59:55.261Z,38.20
2019-04-21T20:10:22.702Z,38.03
2019-04-21T20:20:11.260Z,44.30
2019-04-21T20:30:37.774Z,35.77
2019-04-21T20:40:36.261Z,39.97
2019-04-21T20:50:49.319Z,32.67
2019-04-21T21:01:20.204Z,29.83
2019-04-21T21:11:04.895Z,32.13
2019-04-21T21:21:11.365Z,29.73
2019-04-21T21:31:17.726Z,31.97
2019-04-21T21:41:21.224Z,35.13
2019-04-21T21:51:33.139Z,70.50
2019-04-21T22:01:31.842Z,56.83
2019-04-21T22:11:33.963Z,58.20
2019-04-21T22:21:59.476Z,61.40
2019-04-21T22:32:01.374Z,64.13
2019-04-21T22:42:15.720Z,53.43
2019-04-21T22:52:18.677Z,62.20
2019-04-21T23:02:26.348Z,61.53
2019-04-21T23:12:31.665Z,67.60
2019-04-21T23:23:00.778Z,66.10
2019-04-21T23:32:50.520Z,69.43
2019-04-21T23:42:49.248Z,89.17
2019-04-21T23:52:55.415Z,78.20
